Time;durP1;ratioP1;P1;durP2;ratioP2;P2;SDS_P1;SDS_P2;PMS_P1;PMS_P2;Temp;Humidity;BMP_temperature;BMP_pressure;BME280_temperature;BME280_humidity;BME280_pressure;Samples;Min_cycle;Max_cycle;Signal;HPM_P1;HPM_P2
2021/09/01 00:01:06;;;;;;;19.63;3.60;;;19.90;77.20;;;;;;4973293;28;20054;-71
2021/09/01 00:03:31;;;;;;;14.48;4.05;;;20.00;77.40;;;;;;4972892;28;20496;-71
2021/09/01 00:05:57;;;;;;;16.33;4.70;;;19.90;77.40;;;;;;4972744;28;20035;-71
2021/09/01 00:08:23;;;;;;;19.85;4.25;;;20.00;77.50;;;;;;4971531;28;20042;-71
2021/09/01 00:10:49;;;;;;;17.13;3.97;;;19.90;77.50;;;;;;4973601;28;20109;-71
2021/09/01 00:13:14;;;;;;;19.95;3.65;;;20.00;77.50;;;;;;4968462;28;20434;-71
2021/09/01 00:15:40;;;;;;;13.50;3.60;;;19.90;77.50;;;;;;4970980;28;20450;-71
2021/09/01 00:18:06;;;;;;;16.67;3.50;;;19.90;77.60;;;;;;4971123;28;20082;-71
2021/09/01 00:20:32;;;;;;;20.40;4.53;;;20.00;77.60;;;;;;4972521;28;20035;-71
2021/09/01 00:22:57;;;;;;;12.77;4.15;;;19.90;77.60;;;;;;4974303;28;20026;-71
2021/09/01 00:25:23;;;;;;;17.73;3.95;;;20.00;77.50;;;;;;4973414;28;20382;-71
2021/09/01 00:27:50;;;;;;;18.98;4.05;;;19.90;77.20;;;;;;4970354;28;20043;-71
2021/09/01 00:30:16;;;;;;;15.82;3.90;;;19.90;77.10;;;;;;4974183;28;20109;-71
2021/09/01 00:32:41;;;;;;;14.95;3.08;;;20.00;77.00;;;;;;4971072;28;20031;-71
2021/09/01 00:35:07;;;;;;;16.67;3.10;;;19.90;76.90;;;;;;4972903;28;20034;-71
2021/09/01 00:37:33;;;;;;;13.55;3.78;;;19.90;76.80;;;;;;4972219;28;20094;-71
2021/09/01 00:39:59;;;;;;;17.50;3.30;;;19.90;76.70;;;;;;4972719;28;20029;-71
2021/09/01 00:42:24;;;;;;;14.48;3.60;;;20.00;76.70;;;;;;4971025;28;20050;-72
2021/09/01 00:44:50;;;;;;;14.98;3.97;;;19.90;76.50;;;;;;4972516;28;20429;-71
2021/09/01 00:47:22;;;;;;;14.90;3.60;;;19.90;76.30;;;;;;4973093;28;20030;-71
2021/09/01 00:49:47;;;;;;;12.73;3.17;;;19.90;76.00;;;;;;4971226;28;20508;-71
2021/09/01 00:52:14;;;;;;;17.80;3.42;;;19.90;76.00;;;;;;4972096;28;20023;-71
2021/09/01 00:54:40;;;;;;;12.35;3.97;;;19.80;75.80;;;;;;4971430;28;20463;-71
2021/09/01 00:57:07;;;;;;;9.77;3.38;;;19.90;75.90;;;;;;4972743;28;20368;-71
2021/09/01 00:59:38;;;;;;;15.80;3.70;;;19.90;76.00;;;;;;4972601;28;20039;-71
2021/09/01 01:02:04;;;;;;;19.05;3.85;;;19.90;76.00;;;;;;4971579;28;20034;-71
2021/09/01 01:04:30;;;;;;;25.63;4.07;;;19.90;76.00;;;;;;4971937;28;20035;-71
2021/09/01 01:06:58;;;;;;;12.38;3.15;;;19.90;75.90;;;;;;4970343;28;20026;-71
2021/09/01 01:09:24;;;;;;;10.23;2.85;;;19.90;75.90;;;;;;4972217;28;20038;-71
2021/09/01 01:12:06;;;;;;;15.15;3.33;;;19.90;75.90;;;;;;4971468;28;20482;-71
2021/09/01 01:14:40;;;;;;;15.18;3.45;;;19.90;75.90;;;;;;4962202;28;20191;-71
2021/09/01 01:17:09;;;;;;;16.23;3.13;;;19.90;76.00;;;;;;4969996;28;20035;-71
2021/09/01 01:19:39;;;;;;;13.85;3.60;;;19.90;76.00;;;;;;4961658;28;20501;-71
2021/09/01 01:22:06;;;;;;;14.63;3.95;;;19.80;76.10;;;;;;4971057;28;20027;-71
2021/09/01 01:25:05;;;;;;;12.63;3.15;;;19.80;76.10;;;;;;4972359;28;20053;-71
2021/09/01 01:27:37;;;;;;;14.05;3.72;;;19.80;76.30;;;;;;4970013;28;20035;-71
2021/09/01 01:30:18;;;;;;;19.75;3.83;;;19.80;76.30;;;;;;4975736;28;20039;-71
2021/09/01 01:32:46;;;;;;;24.92;4.82;;;19.70;76.30;;;;;;4957372;28;20023;-71
2021/09/01 01:35:28;;;;;;;13.13;4.03;;;19.70;76.50;;;;;;4970242;28;20154;-71
2021/09/01 01:37:55;;;;;;;13.02;3.30;;;19.60;76.50;;;;;;4974748;28;20576;-71
2021/09/01 01:40:21;;;;;;;18.50;3.15;;;19.60;76.50;;;;;;4964506;28;20372;-71
2021/09/01 01:42:49;;;;;;;16.67;3.42;;;19.70;76.60;;;;;;4974940;28;20563;-71
2021/09/01 01:45:15;;;;;;;12.48;3.03;;;19.60;76.70;;;;;;4976247;28;20027;-71
2021/09/01 01:47:40;;;;;;;11.02;3.50;;;19.60;76.70;;;;;;4972364;28;20042;-71
2021/09/01 01:50:07;;;;;;;14.07;3.38;;;19.60;76.50;;;;;;4973778;28;20100;-71
2021/09/01 01:52:33;;;;;;;13.68;3.25;;;19.50;76.50;;;;;;4975623;28;20066;-71
2021/09/01 01:54:58;;;;;;;10.63;2.92;;;19.50;76.50;;;;;;4969481;28;20047;-71
2021/09/01 01:57:24;;;;;;;15.25;2.97;;;19.60;76.50;;;;;;4976139;28;20066;-71
2021/09/01 01:59:50;;;;;;;8.93;2.97;;;19.60;76.40;;;;;;4975208;28;20038;-71
2021/09/01 02:02:15;;;;;;;15.95;3.33;;;19.50;76.20;;;;;;4975339;28;20090;-71
2021/09/01 02:04:41;;;;;;;19.55;3.75;;;19.60;76.30;;;;;;4974940;28;20027;-71
2021/09/01 02:07:07;;;;;;;12.57;3.10;;;19.50;76.10;;;;;;4975413;28;20474;-71
2021/09/01 02:09:32;;;;;;;13.13;3.33;;;19.60;76.10;;;;;;4975956;28;20482;-71
2021/09/01 02:11:58;;;;;;;12.13;2.95;;;19.60;76.10;;;;;;4973597;28;20035;-71
2021/09/01 02:14:23;;;;;;;12.13;3.50;;;19.60;76.10;;;;;;4967248;28;20098;-69
2021/09/01 02:16:49;;;;;;;11.20;3.13;;;19.60;76.00;;;;;;4974866;28;20039;-71
2021/09/01 02:19:15;;;;;;;10.80;3.40;;;19.50;75.80;;;;;;4973984;28;20125;-71
2021/09/01 02:21:40;;;;;;;12.88;3.25;;;19.50;75.90;;;;;;4974434;28;20034;-71
2021/09/01 02:24:07;;;;;;;11.63;3.05;;;19.60;76.00;;;;;;4976106;28;20030;-71
2021/09/01 02:26:33;;;;;;;14.43;3.15;;;19.50;76.10;;;;;;4975603;28;20517;-71
2021/09/01 02:28:59;;;;;;;17.95;3.65;;;19.50;76.20;;;;;;4970984;28;20038;-71
2021/09/01 02:31:25;;;;;;;8.95;3.05;;;19.50;76.30;;;;;;4975544;28;20027;-71
2021/09/01 02:33:51;;;;;;;19.17;3.10;;;19.60;76.50;;;;;;4973667;28;20041;-71
2021/09/01 02:36:18;;;;;;;11.50;3.42;;;19.60;76.60;;;;;;4975238;28;20023;-71
2021/09/01 02:38:44;;;;;;;16.05;3.55;;;19.50;76.80;;;;;;4975535;28;20035;-71
2021/09/01 02:41:14;;;;;;;12.40;2.83;;;19.50;76.80;;;;;;4973679;28;20018;-71
2021/09/01 02:43:40;;;;;;;14.85;3.22;;;19.60;77.00;;;;;;4975490;28;20039;-71
2021/09/01 02:46:05;;;;;;;13.82;3.53;;;19.60;77.10;;;;;;4971522;28;20034;-71
2021/09/01 02:48:31;;;;;;;13.55;2.90;;;19.60;77.20;;;;;;4974642;28;20031;-71
2021/09/01 02:50:57;;;;;;;13.65;4.05;;;19.50;77.20;;;;;;4973759;28;20027;-70
2021/09/01 02:53:23;;;;;;;12.98;3.33;;;19.50;77.30;;;;;;4973588;28;20035;-71
2021/09/01 02:55:49;;;;;;;13.95;3.22;;;19.50;77.40;;;;;;4973935;28;20041;-71
2021/09/01 02:58:15;;;;;;;13.70;2.70;;;19.50;77.40;;;;;;4974478;28;20065;-71
2021/09/01 03:00:41;;;;;;;13.30;2.88;;;19.60;77.50;;;;;;4974251;28;20042;-71
2021/09/01 03:03:07;;;;;;;16.80;3.83;;;19.60;77.30;;;;;;4973051;28;20459;-71
2021/09/01 03:05:33;;;;;;;14.45;3.28;;;19.60;77.30;;;;;;4975221;28;20018;-72
2021/09/01 03:07:58;;;;;;;14.15;2.95;;;19.50;77.10;;;;;;4975203;28;20046;-72
2021/09/01 03:10:24;;;;;;;12.85;3.53;;;19.60;77.20;;;;;;4971940;28;20129;-72
2021/09/01 03:12:50;;;;;;;12.23;3.63;;;19.60;77.20;;;;;;4975054;28;20478;-72
2021/09/01 03:15:16;;;;;;;17.38;3.67;;;19.60;77.10;;;;;;4972937;28;20062;-72
2021/09/01 03:17:41;;;;;;;12.18;2.97;;;19.60;77.10;;;;;;4973939;28;20073;-72
2021/09/01 03:20:08;;;;;;;13.95;3.20;;;19.60;77.10;;;;;;4975247;28;20031;-72
2021/09/01 03:22:34;;;;;;;17.98;3.22;;;19.70;77.20;;;;;;4973101;28;20026;-72
2021/09/01 03:24:59;;;;;;;15.80;3.00;;;19.60;77.20;;;;;;4974167;28;20561;-72
2021/09/01 03:27:25;;;;;;;12.48;2.95;;;19.60;77.20;;;;;;4972113;28;20038;-72
2021/09/01 03:29:50;;;;;;;9.32;3.05;;;19.70;77.40;;;;;;4974609;28;20125;-72
2021/09/01 03:32:16;;;;;;;13.38;2.97;;;19.60;77.40;;;;;;4973932;28;20031;-72
2021/09/01 03:34:42;;;;;;;12.80;2.85;;;19.60;77.40;;;;;;4973484;28;20034;-72
2021/09/01 03:37:08;;;;;;;16.60;3.38;;;19.60;77.50;;;;;;4971888;28;20037;-72
2021/09/01 03:39:33;;;;;;;17.88;3.28;;;19.60;77.60;;;;;;4974287;28;20035;-72
2021/09/01 03:41:59;;;;;;;12.45;3.13;;;19.70;77.80;;;;;;4974153;28;20109;-72
2021/09/01 03:44:24;;;;;;;10.55;2.90;;;19.60;78.30;;;;;;4973142;28;20035;-72
2021/09/01 03:46:50;;;;;;;18.02;3.17;;;19.60;77.80;;;;;;4973565;28;20035;-72
2021/09/01 03:49:18;;;;;;;11.77;3.28;;;19.60;77.70;;;;;;4973693;28;20078;-72
2021/09/01 03:51:45;;;;;;;17.25;3.22;;;19.60;77.90;;;;;;4973187;28;20035;-72
2021/09/01 03:54:12;;;;;;;12.20;3.30;;;19.60;77.90;;;;;;4972550;28;20034;-72
2021/09/01 03:56:37;;;;;;;16.75;2.47;;;19.60;77.90;;;;;;4974059;28;20058;-72
2021/09/01 03:59:04;;;;;;;17.25;3.80;;;19.60;78.00;;;;;;4973346;28;20481;-72
2021/09/01 04:01:35;;;;;;;14.48;3.00;;;19.60;78.10;;;;;;4970820;28;20030;-72
2021/09/01 04:04:05;;;;;;;19.73;4.07;;;19.60;78.10;;;;;;4974270;28;20037;-72
2021/09/01 04:06:31;;;;;;;11.18;3.17;;;19.50;78.10;;;;;;4972816;28;20125;-72
2021/09/01 04:08:57;;;;;;;15.52;4.13;;;19.50;78.00;;;;;;4973813;28;20090;-72
2021/09/01 04:11:23;;;;;;;13.93;2.85;;;19.50;77.70;;;;;;4973959;28;20038;-72
2021/09/01 04:13:49;;;;;;;13.93;3.08;;;19.50;77.30;;;;;;4972207;28;20475;-71
2021/09/01 04:16:15;;;;;;;12.80;3.90;;;19.50;76.90;;;;;;4973903;28;20046;-72
2021/09/01 04:18:41;;;;;;;11.02;3.47;;;19.60;76.90;;;;;;4973264;28;20038;-72
2021/09/01 04:21:06;;;;;;;10.20;3.20;;;19.50;76.80;;;;;;4972173;28;20031;-72
2021/09/01 04:23:32;;;;;;;10.73;3.33;;;19.60;76.80;;;;;;4973172;28;20047;-72
2021/09/01 04:25:58;;;;;;;15.90;3.38;;;19.60;76.90;;;;;;4972979;28;20084;-72
2021/09/01 04:28:24;;;;;;;12.98;3.28;;;19.60;77.20;;;;;;4971368;28;20117;-72
2021/09/01 04:30:49;;;;;;;21.90;3.15;;;19.50;76.90;;;;;;4972875;28;20034;-72
2021/09/01 04:33:15;;;;;;;14.73;2.90;;;19.50;77.00;;;;;;4973603;28;20051;-72
2021/09/01 04:35:41;;;;;;;12.95;3.17;;;19.50;77.10;;;;;;4970806;28;20061;-72
2021/09/01 04:38:06;;;;;;;18.05;3.40;;;19.60;77.20;;;;;;4973688;28;20077;-72
2021/09/01 04:40:32;;;;;;;11.45;3.00;;;19.50;77.20;;;;;;4972210;28;20045;-72
2021/09/01 04:42:58;;;;;;;15.02;3.78;;;19.60;77.40;;;;;;4967651;28;20465;-72
2021/09/01 04:45:23;;;;;;;11.10;2.85;;;19.60;77.40;;;;;;4968206;28;20023;-72
2021/09/01 04:47:49;;;;;;;7.22;2.63;;;19.50;77.50;;;;;;4969379;28;20376;-72
2021/09/01 04:50:15;;;;;;;11.73;2.88;;;19.50;77.60;;;;;;4973003;28;20085;-72
2021/09/01 04:52:41;;;;;;;11.75;2.90;;;19.60;77.80;;;;;;4972944;28;20050;-72
2021/09/01 04:55:08;;;;;;;16.15;3.40;;;19.60;77.80;;;;;;4972132;28;20034;-72
2021/09/01 04:57:34;;;;;;;16.38;3.40;;;19.50;77.50;;;;;;4971819;28;20090;-72
2021/09/01 05:00:00;;;;;;;11.55;3.45;;;19.50;77.80;;;;;;4972294;28;20034;-72
2021/09/01 05:02:25;;;;;;;12.07;3.72;;;19.60;78.30;;;;;;4972794;28;20117;-72
2021/09/01 05:04:51;;;;;;;17.27;3.15;;;19.60;78.30;;;;;;4973370;28;20041;-72
2021/09/01 05:07:17;;;;;;;9.30;3.13;;;19.60;78.30;;;;;;4977319;28;20037;-72
2021/09/01 05:09:42;;;;;;;21.63;3.35;;;19.60;78.30;;;;;;4974623;28;20038;-73
2021/09/01 05:12:08;;;;;;;9.57;3.00;;;19.50;78.30;;;;;;4976498;28;20030;-72
2021/09/01 05:14:34;;;;;;;12.32;2.90;;;19.50;78.50;;;;;;4977133;28;20058;-70
2021/09/01 05:17:00;;;;;;;13.90;3.10;;;19.50;78.70;;;;;;4974633;28;20524;-75
2021/09/01 05:19:26;;;;;;;8.43;2.95;;;19.50;78.90;;;;;;4976314;28;20034;-76
2021/09/01 05:21:53;;;;;;;14.27;3.50;;;19.40;79.10;;;;;;4976070;28;20110;-71
2021/09/01 05:24:45;;;;;;;12.60;3.22;;;19.40;79.40;;;;;;4976018;28;20041;-71
2021/09/01 05:27:17;;;;;;;11.10;2.85;;;19.40;79.70;;;;;;4976217;28;20044;-71
2021/09/01 05:29:44;;;;;;;18.50;3.67;;;19.50;79.50;;;;;;4974409;28;20114;-71
2021/09/01 05:32:16;;;;;;;9.95;3.50;;;19.40;79.10;;;;;;4964838;28;20806;-71
2021/09/01 05:34:42;;;;;;;13.95;4.13;;;19.50;79.00;;;;;;4975363;28;20098;-71
2021/09/01 05:37:11;;;;;;;14.45;3.65;;;19.50;79.40;;;;;;4975215;28;20082;-72
2021/09/01 05:39:40;;;;;;;11.35;3.17;;;19.50;79.80;;;;;;4975998;28;20038;-71
2021/09/01 05:42:05;;;;;;;15.70;3.40;;;19.50;80.00;;;;;;4976267;28;20031;-71
2021/09/01 05:44:32;;;;;;;16.75;3.42;;;19.50;80.10;;;;;;4974463;28;20023;-71
2021/09/01 05:46:58;;;;;;;14.82;3.40;;;19.50;80.40;;;;;;4974229;28;20038;-71
2021/09/01 05:49:24;;;;;;;12.43;3.67;;;19.60;79.90;;;;;;4973610;28;20039;-71
2021/09/01 05:51:51;;;;;;;12.07;3.25;;;19.50;79.60;;;;;;4973509;28;20073;-72
2021/09/01 05:54:17;;;;;;;16.50;3.85;;;19.60;80.20;;;;;;4973765;28;20031;-72
2021/09/01 05:56:44;;;;;;;14.63;3.38;;;19.60;79.90;;;;;;4973401;28;20038;-72
2021/09/01 05:59:13;;;;;;;12.18;2.90;;;19.60;79.60;;;;;;4972624;28;20038;-71
2021/09/01 06:01:42;;;;;;;12.20;3.55;;;19.60;79.60;;;;;;4974355;28;20383;-72
2021/09/01 06:04:09;;;;;;;21.42;3.20;;;19.60;79.80;;;;;;4976537;28;20074;-73
2021/09/01 06:06:38;;;;;;;15.30;3.60;;;19.60;80.10;;;;;;4974355;28;20027;-74
2021/09/01 06:09:07;;;;;;;16.75;3.70;;;19.60;80.30;;;;;;4973151;28;20114;-74
2021/09/01 06:11:35;;;;;;;14.13;3.10;;;19.60;80.30;;;;;;4975675;28;20372;-74
2021/09/01 06:14:01;;;;;;;14.18;3.33;;;19.60;80.10;;;;;;4973299;28;20039;-75
2021/09/01 06:16:27;;;;;;;16.95;3.67;;;19.60;80.10;;;;;;4973225;28;20026;-74
2021/09/01 06:18:52;;;;;;;14.80;4.10;;;19.60;80.10;;;;;;4974442;28;20038;-74
2021/09/01 06:21:18;;;;;;;12.50;3.05;;;19.60;80.00;;;;;;4975172;28;20039;-71
2021/09/01 06:23:44;;;;;;;16.35;4.10;;;19.60;80.10;;;;;;4974845;28;20086;-72
2021/09/01 06:26:11;;;;;;;15.25;3.92;;;19.70;80.00;;;;;;4974669;28;20033;-72
2021/09/01 06:28:36;;;;;;;9.77;3.28;;;19.60;79.80;;;;;;4974700;28;20479;-72
2021/09/01 06:31:03;;;;;;;11.00;3.75;;;19.60;79.50;;;;;;4970356;28;20029;-72
2021/09/01 06:33:29;;;;;;;14.63;3.47;;;19.60;79.30;;;;;;4974159;28;20466;-72
2021/09/01 06:35:54;;;;;;;20.40;3.90;;;19.70;79.30;;;;;;4974630;28;20042;-72
2021/09/01 06:38:20;;;;;;;16.75;2.97;;;19.70;79.30;;;;;;4974247;28;20069;-72
2021/09/01 06:40:48;;;;;;;17.92;3.35;;;19.70;79.40;;;;;;4971041;28;20039;-72
2021/09/01 06:43:14;;;;;;;14.43;3.67;;;19.70;79.50;;;;;;4971992;28;20023;-72
2021/09/01 06:45:41;;;;;;;18.80;3.85;;;19.70;79.50;;;;;;4972801;28;20081;-72
2021/09/01 06:48:09;;;;;;;13.95;3.22;;;19.70;79.20;;;;;;4971420;28;20118;-72
2021/09/01 06:50:35;;;;;;;20.10;3.95;;;19.70;78.70;;;;;;4974541;28;20520;-72
2021/09/01 06:53:00;;;;;;;14.63;4.10;;;19.70;78.30;;;;;;4974365;28;20023;-73
2021/09/01 06:55:26;;;;;;;14.70;3.45;;;19.80;77.70;;;;;;4972778;28;20034;-73
2021/09/01 06:57:52;;;;;;;18.85;3.70;;;19.80;77.50;;;;;;4972157;28;20122;-73
2021/09/01 07:00:19;;;;;;;10.65;3.65;;;19.80;77.50;;;;;;4971816;28;20047;-73
2021/09/01 07:02:46;;;;;;;15.10;3.42;;;19.80;77.40;;;;;;4971691;28;20027;-73
2021/09/01 07:05:14;;;;;;;15.43;3.30;;;19.80;77.20;;;;;;4973177;28;20093;-73
2021/09/01 07:07:43;;;;;;;14.55;3.20;;;19.80;77.50;;;;;;4973592;28;20034;-73
2021/09/01 07:10:10;;;;;;;15.32;4.63;;;19.80;77.70;;;;;;4973316;28;20031;-72
2021/09/01 07:12:36;;;;;;;9.48;3.10;;;19.70;77.90;;;;;;4974433;28;20531;-72
2021/09/01 07:15:03;;;;;;;12.90;3.75;;;19.70;78.10;;;;;;4973831;28;20059;-72
2021/09/01 07:17:28;;;;;;;17.40;4.03;;;19.70;78.30;;;;;;4971756;28;20066;-73
2021/09/01 07:19:54;;;;;;;16.50;3.78;;;19.60;78.50;;;;;;4973233;28;20051;-72
2021/09/01 07:22:20;;;;;;;18.10;4.25;;;19.60;78.60;;;;;;4972569;28;20121;-72
2021/09/01 07:24:45;;;;;;;13.98;3.28;;;19.60;78.70;;;;;;4973538;28;20027;-72
2021/09/01 07:27:11;;;;;;;11.85;3.60;;;19.60;78.30;;;;;;4971125;28;20586;-72
2021/09/01 07:29:37;;;;;;;12.82;3.53;;;19.60;78.10;;;;;;4970234;28;20678;-72
2021/09/01 07:32:02;;;;;;;14.40;3.42;;;19.60;77.80;;;;;;4971688;28;20445;-72
2021/09/01 07:34:28;;;;;;;16.25;3.80;;;19.70;78.00;;;;;;4972542;28;20062;-72
2021/09/01 07:36:54;;;;;;;10.77;3.95;;;19.70;78.20;;;;;;4970264;28;20034;-72
2021/09/01 07:39:19;;;;;;;17.10;3.88;;;19.80;78.00;;;;;;4972286;28;20042;-72
2021/09/01 07:41:45;;;;;;;13.77;3.40;;;19.80;77.70;;;;;;4973656;28;20030;-72
2021/09/01 07:44:11;;;;;;;11.30;3.80;;;19.80;77.70;;;;;;4972667;28;20027;-72
2021/09/01 07:46:36;;;;;;;15.23;3.35;;;19.80;77.80;;;;;;4973712;28;20031;-72
2021/09/01 07:49:02;;;;;;;13.02;3.67;;;19.90;78.10;;;;;;4969806;28;20118;-72
2021/09/01 07:51:28;;;;;;;15.30;3.75;;;19.90;78.20;;;;;;4973437;28;20351;-72
2021/09/01 07:53:54;;;;;;;14.10;3.13;;;19.90;78.20;;;;;;4973997;28;20030;-72
2021/09/01 07:56:20;;;;;;;11.88;3.70;;;19.90;78.40;;;;;;4972240;28;20430;-72
2021/09/01 07:58:45;;;;;;;14.68;3.75;;;19.90;78.50;;;;;;4973499;28;20043;-72
2021/09/01 08:01:11;;;;;;;17.58;3.80;;;19.90;78.50;;;;;;4972587;28;20023;-72
2021/09/01 08:03:37;;;;;;;12.27;4.00;;;19.90;78.40;;;;;;4973629;28;20033;-72
2021/09/01 08:06:07;;;;;;;22.75;4.72;;;19.90;78.50;;;;;;4973361;28;20085;-72
2021/09/01 08:08:33;;;;;;;24.73;3.85;;;19.90;78.30;;;;;;4972387;28;20121;-72
2021/09/01 08:10:59;;;;;;;11.93;3.40;;;20.00;78.30;;;;;;4974110;28;20122;-72
2021/09/01 08:13:26;;;;;;;11.20;3.13;;;20.00;78.20;;;;;;4972184;28;20153;-72
2021/09/01 08:15:51;;;;;;;15.52;3.70;;;20.00;78.10;;;;;;4973695;28;20525;-72
2021/09/01 08:18:17;;;;;;;12.88;3.50;;;20.00;77.80;;;;;;4960938;28;20063;-72
2021/09/01 08:20:43;;;;;;;16.27;3.78;;;20.10;77.80;;;;;;4972797;28;20093;-72
2021/09/01 08:23:09;;;;;;;16.92;4.10;;;20.10;77.80;;;;;;4973733;28;20364;-71
2021/09/01 08:25:34;;;;;;;11.05;3.10;;;20.10;77.60;;;;;;4971273;28;20085;-72
2021/09/01 08:28:00;;;;;;;19.58;3.70;;;20.10;77.30;;;;;;4972996;28;20051;-72
2021/09/01 08:30:26;;;;;;;14.25;3.13;;;20.20;77.30;;;;;;4973522;28;20034;-72
2021/09/01 08:32:52;;;;;;;13.85;2.95;;;20.20;77.20;;;;;;4971429;28;20026;-72
2021/09/01 08:35:17;;;;;;;11.45;3.42;;;20.20;77.00;;;;;;4972916;28;20045;-72
2021/09/01 08:37:43;;;;;;;16.33;3.75;;;20.20;77.00;;;;;;4973229;28;20022;-72
2021/09/01 08:40:09;;;;;;;13.15;3.17;;;20.20;77.20;;;;;;4972059;28;20039;-72
2021/09/01 08:42:36;;;;;;;16.30;3.03;;;20.20;77.00;;;;;;4971315;28;20375;-72
2021/09/01 08:45:03;;;;;;;12.73;3.00;;;20.20;76.70;;;;;;4971198;28;20030;-72
2021/09/01 08:47:31;;;;;;;15.70;3.38;;;20.30;77.00;;;;;;4971687;28;20113;-72
2021/09/01 08:49:58;;;;;;;13.13;3.30;;;20.30;76.80;;;;;;4971651;28;20043;-72
2021/09/01 08:52:24;;;;;;;9.23;3.30;;;20.30;76.70;;;;;;4971984;28;20039;-72
2021/09/01 08:54:50;;;;;;;16.33;3.58;;;20.30;76.30;;;;;;4961659;28;20081;-72
2021/09/01 08:57:16;;;;;;;12.32;2.95;;;20.30;75.70;;;;;;4972351;28;20073;-72
2021/09/01 08:59:42;;;;;;;17.92;3.28;;;20.30;75.70;;;;;;4972260;28;20059;-72
2021/09/01 09:02:07;;;;;;;11.27;2.70;;;20.40;75.80;;;;;;4972750;28;20090;-72
2021/09/01 09:04:38;;;;;;;13.80;2.80;;;20.40;76.20;;;;;;4972534;28;20030;-72
2021/09/01 09:07:06;;;;;;;13.98;3.33;;;20.40;76.20;;;;;;4973042;28;20039;-72
2021/09/01 09:09:38;;;;;;;10.50;4.05;;;20.30;76.30;;;;;;4971772;28;20047;-72
2021/09/01 09:12:06;;;;;;;14.15;3.55;;;20.30;76.20;;;;;;4969861;28;20027;-72
2021/09/01 09:14:34;;;;;;;11.10;3.17;;;20.40;76.00;;;;;;4971538;28;20137;-72
2021/09/01 09:17:14;;;;;;;15.80;3.80;;;20.40;76.10;;;;;;4969743;28;20042;-72
2021/09/01 09:20:03;;;;;;;11.55;3.35;;;20.40;76.50;;;;;;4971400;28;20541;-72
2021/09/01 09:22:38;;;;;;;16.40;3.55;;;20.50;76.70;;;;;;4970576;28;20046;-72
2021/09/01 09:25:06;;;;;;;14.02;3.05;;;20.40;76.80;;;;;;4971921;28;20034;-71
2021/09/01 09:27:59;;;;;;;14.98;3.10;;;20.40;76.60;;;;;;4972402;28;20031;-71
2021/09/01 09:30:27;;;;;;;22.85;3.97;;;20.40;76.60;;;;;;4958788;28;20074;-72
2021/09/01 09:33:14;;;;;;;16.42;3.28;;;20.50;76.70;;;;;;4969890;28;20085;-72
2021/09/01 09:35:51;;;;;;;19.25;3.60;;;20.50;76.60;;;;;;4972306;28;20466;-72
2021/09/01 09:38:39;;;;;;;14.50;3.85;;;20.50;76.80;;;;;;4972014;28;20039;-72
2021/09/01 09:41:22;;;;;;;12.23;2.88;;;20.60;76.80;;;;;;4967006;28;20058;-71
2021/09/01 09:43:50;;;;;;;20.57;3.47;;;20.60;76.80;;;;;;4970292;28;20035;-72
2021/09/01 09:46:16;;;;;;;10.77;3.05;;;20.60;76.90;;;;;;4970813;28;20286;-72
2021/09/01 09:48:44;;;;;;;10.88;2.92;;;20.60;76.80;;;;;;4971373;28;20046;-71
2021/09/01 09:51:15;;;;;;;14.00;3.22;;;20.60;76.80;;;;;;4972891;28;20422;-72
2021/09/01 09:53:51;;;;;;;10.32;3.40;;;20.60;76.80;;;;;;4975959;28;20038;-72
2021/09/01 09:56:29;;;;;;;13.43;3.33;;;20.70;76.60;;;;;;4976292;28;20035;-72
2021/09/01 09:58:58;;;;;;;10.20;3.20;;;20.70;76.50;;;;;;4974972;28;20473;-72
2021/09/01 10:01:25;;;;;;;15.90;2.90;;;20.80;76.50;;;;;;4973709;28;20110;-72
2021/09/01 10:03:52;;;;;;;14.57;3.08;;;20.80;76.20;;;;;;4975727;28;20429;-72
2021/09/01 10:06:20;;;;;;;15.88;3.25;;;20.80;76.00;;;;;;4975132;28;20085;-74
2021/09/01 10:08:52;;;;;;;16.08;3.58;;;20.90;76.00;;;;;;4975127;28;20031;-74
2021/09/01 10:11:20;;;;;;;12.30;3.03;;;20.90;75.80;;;;;;4975020;28;20129;-73
2021/09/01 10:13:48;;;;;;;12.00;3.10;;;21.00;75.70;;;;;;4974322;28;20046;-71
2021/09/01 10:16:20;;;;;;;14.35;3.20;;;21.00;75.50;;;;;;4975272;28;20078;-72
2021/09/01 10:19:10;;;;;;;13.32;2.80;;;21.00;75.30;;;;;;4971536;28;20046;-72
2021/09/01 10:21:38;;;;;;;14.52;2.88;;;21.00;75.50;;;;;;4975384;28;20082;-72
2021/09/01 10:24:22;;;;;;;10.02;2.80;;;21.00;75.60;;;;;;4974281;28;20371;-72
2021/09/01 10:27:12;;;;;;;11.55;3.10;;;21.00;75.40;;;;;;4974323;28;20026;-72
2021/09/01 10:29:39;;;;;;;9.40;2.75;;;21.00;75.10;;;;;;4966822;28;20038;-74
2021/09/01 10:32:48;;;;;;;11.95;2.80;;;21.10;75.50;;;;;;4975575;28;20033;-73
2021/09/01 10:35:16;;;;;;;11.95;2.97;;;21.10;75.50;;;;;;4966628;28;20074;-73
2021/09/01 10:37:54;;;;;;;8.85;2.70;;;21.10;75.10;;;;;;4975430;28;20023;-74
2021/09/01 10:40:23;;;;;;;11.40;3.60;;;21.10;74.80;;;;;;4974336;28;20490;-69
2021/09/01 10:42:56;;;;;;;10.75;2.75;;;21.20;74.50;;;;;;4975142;28;20478;-72
2021/09/01 10:45:32;;;;;;;11.05;2.85;;;21.20;74.90;;;;;;4974296;28;20163;-72
2021/09/01 10:48:09;;;;;;;11.25;2.95;;;21.20;74.60;;;;;;4973640;28;20498;-75
2021/09/01 10:50:55;;;;;;;11.98;3.38;;;21.30;74.20;;;;;;4975221;28;20062;-75
2021/09/01 10:53:23;;;;;;;11.02;3.13;;;21.30;74.10;;;;;;4974231;28;20116;-74
2021/09/01 10:56:02;;;;;;;15.27;2.78;;;21.30;74.00;;;;;;4974784;28;20034;-75
2021/09/01 10:58:40;;;;;;;10.13;2.85;;;21.30;73.90;;;;;;4974752;28;20121;-75
2021/09/01 11:01:16;;;;;;;12.80;2.78;;;21.30;73.90;;;;;;4972450;28;20397;-75
2021/09/01 11:03:49;;;;;;;18.92;3.30;;;21.30;73.80;;;;;;4972502;28;20031;-75
2021/09/01 11:06:16;;;;;;;10.93;3.28;;;21.40;73.50;;;;;;4974571;28;20033;-75
2021/09/01 11:09:07;;;;;;;12.65;2.75;;;21.40;73.50;;;;;;4973734;28;20049;-75
2021/09/01 11:11:38;;;;;;;10.38;3.00;;;21.40;73.30;;;;;;4973758;28;20157;-75
2021/09/01 11:14:03;;;;;;;9.52;2.95;;;21.50;73.50;;;;;;4974179;28;20027;-73
2021/09/01 11:16:29;;;;;;;13.38;2.83;;;21.50;73.40;;;;;;4972825;28;20049;-73
2021/09/01 11:19:08;;;;;;;13.20;3.42;;;21.50;73.20;;;;;;4972746;28;20019;-71
2021/09/01 11:21:41;;;;;;;11.20;2.97;;;21.50;73.60;;;;;;4965003;28;20552;-71
2021/09/01 11:24:08;;;;;;;10.52;3.13;;;21.50;75.10;;;;;;4961538;28;20023;-71
2021/09/01 11:26:34;;;;;;;11.00;3.30;;;21.50;75.50;;;;;;4971930;28;20045;-71
2021/09/01 11:29:04;;;;;;;9.60;3.22;;;21.50;75.60;;;;;;4973770;28;20035;-71
2021/09/01 11:31:31;;;;;;;13.70;3.13;;;21.50;75.70;;;;;;4969599;28;20030;-72
2021/09/01 11:33:59;;;;;;;10.73;3.15;;;21.50;76.10;;;;;;4974115;28;20034;-71
2021/09/01 11:36:27;;;;;;;11.55;3.10;;;21.50;76.20;;;;;;4973673;28;20117;-71
2021/09/01 11:38:58;;;;;;;12.73;3.10;;;21.50;76.30;;;;;;4973600;28;20090;-71
2021/09/01 11:41:25;;;;;;;13.80;3.03;;;21.50;76.30;;;;;;4966307;28;20077;-72
2021/09/01 11:44:03;;;;;;;15.57;3.50;;;21.50;76.20;;;;;;4973462;28;20034;-71
2021/09/01 11:46:32;;;;;;;18.48;3.30;;;21.50;75.80;;;;;;4965545;28;20035;-71
2021/09/01 11:49:04;;;;;;;11.85;2.83;;;21.50;76.00;;;;;;4973371;28;20390;-71
2021/09/01 11:51:31;;;;;;;9.40;2.80;;;21.50;76.10;;;;;;4971542;28;20445;-71
2021/09/01 11:53:58;;;;;;;10.38;2.90;;;21.60;76.00;;;;;;4972802;28;20484;-71
2021/09/01 11:56:26;;;;;;;9.07;2.67;;;21.50;75.90;;;;;;4970960;28;20038;-72
2021/09/01 11:59:12;;;;;;;12.85;3.33;;;21.60;76.20;;;;;;4971757;28;20073;-71
2021/09/01 12:01:51;;;;;;;11.60;3.05;;;21.60;76.10;;;;;;4972007;28;20034;-71
2021/09/01 12:04:19;;;;;;;8.57;2.90;;;21.70;75.80;;;;;;4969642;28;20041;-71
2021/09/01 12:06:50;;;;;;;8.70;2.70;;;21.70;76.20;;;;;;4972537;28;20381;-71
2021/09/01 12:09:18;;;;;;;17.30;3.00;;;21.70;76.20;;;;;;4968493;28;20078;-71
2021/09/01 12:11:54;;;;;;;10.13;2.75;;;21.70;76.30;;;;;;4971620;28;20034;-71
2021/09/01 12:14:23;;;;;;;11.63;2.55;;;21.70;75.90;;;;;;4971392;28;20035;-71
2021/09/01 12:16:54;;;;;;;9.10;2.70;;;21.70;75.50;;;;;;4972054;28;20030;-71
2021/09/01 12:19:21;;;;;;;8.82;3.00;;;21.70;75.40;;;;;;4971591;28;20035;-71
2021/09/01 12:21:55;;;;;;;15.68;2.97;;;21.70;75.80;;;;;;4972440;28;20081;-71
2021/09/01 12:24:27;;;;;;;13.45;3.00;;;21.80;75.80;;;;;;4970788;28;20066;-71
2021/09/01 12:27:12;;;;;;;11.47;2.67;;;21.80;75.70;;;;;;4971217;28;20031;-71
2021/09/01 12:29:38;;;;;;;12.38;2.50;;;21.80;76.00;;;;;;4969366;28;20330;-71
2021/09/01 12:32:07;;;;;;;13.43;2.97;;;21.80;76.10;;;;;;4970669;28;20043;-71
2021/09/01 12:34:39;;;;;;;11.68;3.47;;;21.80;76.10;;;;;;4971166;28;20043;-71
2021/09/01 12:37:11;;;;;;;17.33;3.08;;;21.80;75.80;;;;;;4970560;28;20053;-71
2021/09/01 12:40:13;;;;;;;6.45;3.17;;;21.80;75.80;;;;;;4968439;28;20042;-71
2021/09/01 12:42:44;;;;;;;13.75;2.92;;;21.80;75.70;;;;;;4968212;28;20070;-71
2021/09/01 12:45:17;;;;;;;12.20;3.28;;;21.90;76.10;;;;;;4969746;28;20060;-71